createdAt,value
2023-01-15T00:02:13.711Z,99732.59
2023-01-15T00:04:40.600Z,99728.59
2023-01-15T00:07:07.336Z,99724.59
2023-01-15T00:09:34.205Z,99743.44
2023-01-15T00:12:02.205Z,99732.22
2023-01-15T00:14:28.967Z,99735.59
2023-01-15T00:16:55.658Z,99744.69
2023-01-15T00:19:22.443Z,99740.41
2023-01-15T00:21:49.266Z,99748.06
2023-01-15T00:24:34.591Z,99738.00
2023-01-15T00:27:19.775Z,99735.59
2023-01-15T00:29:47.052Z,99749.41
2023-01-15T00:32:13.712Z,99750.34
2023-01-15T00:34:40.339Z,99753.97
2023-01-15T00:37:07.000Z,99740.44
2023-01-15T00:39:35.446Z,99734.44
2023-01-15T00:42:03.064Z,99719.13
2023-01-15T00:44:33.553Z,99728.44
2023-01-15T00:47:00.537Z,99713.91
2023-01-15T00:49:27.208Z,99718.31
2023-01-15T00:51:53.941Z,99707.38
2023-01-15T00:54:20.650Z,99695.59
2023-01-15T00:56:47.294Z,99698.03
2023-01-15T00:59:14.019Z,99702.44
2023-01-15T01:01:41.094Z,99705.19
2023-01-15T01:04:07.931Z,99717.09
2023-01-15T01:06:35.331Z,99710.38
2023-01-15T01:09:02.305Z,99702.13
2023-01-15T01:11:34.251Z,99696.03
2023-01-15T01:14:02.656Z,99702.97
2023-01-15T01:16:39.069Z,99686.53
2023-01-15T01:19:20.892Z,99724.34
2023-01-15T01:21:49.620Z,99733.88
2023-01-15T01:24:22.839Z,99725.34
2023-01-15T01:26:52.237Z,99727.81
2023-01-15T01:29:23.015Z,99735.44
2023-01-15T01:31:51.126Z,99740.69
2023-01-15T01:34:18.620Z,99740.69
2023-01-15T01:36:45.738Z,99732.16
2023-01-15T01:39:16.985Z,99723.38
2023-01-15T01:41:44.656Z,99721.78
2023-01-15T01:44:33.254Z,99731.25
2023-01-15T01:47:11.241Z,99734.50
2023-01-15T01:49:40.152Z,99727.00
2023-01-15T01:52:13.779Z,99748.53
2023-01-15T01:54:41.891Z,99743.34
2023-01-15T01:57:11.479Z,99725.56
2023-01-15T01:59:38.669Z,99735.84
2023-01-15T02:02:06.547Z,99766.66
2023-01-15T02:04:34.238Z,99753.94
2023-01-15T02:07:03.330Z,99756.41
2023-01-15T02:09:30.394Z,99759.09
2023-01-15T02:12:16.173Z,99748.91
2023-01-15T02:15:01.197Z,99741.09
2023-01-15T02:17:50.067Z,99738.50
2023-01-15T02:20:44.354Z,99729.84
2023-01-15T02:23:37.325Z,99714.41
2023-01-15T02:26:19.751Z,99720.47
2023-01-15T02:28:50.133Z,99717.91
2023-01-15T02:31:28.471Z,99716.22
2023-01-15T02:34:21.102Z,99715.41
2023-01-15T02:37:01.132Z,99724.59
2023-01-15T02:39:30.633Z,99713.50
2023-01-15T02:42:02.985Z,99723.88
2023-01-15T02:44:41.614Z,99716.25
2023-01-15T02:47:11.989Z,99711.94
2023-01-15T02:49:40.917Z,99700.91
2023-01-15T02:52:18.799Z,99697.41
2023-01-15T02:54:54.895Z,99706.69
2023-01-15T02:57:26.321Z,99700.69
2023-01-15T03:00:01.608Z,99694.75
2023-01-15T03:03:02.667Z,99700.75
2023-01-15T03:05:40.269Z,99706.75
2023-01-15T03:08:09.791Z,99681.84
2023-01-15T03:11:11.265Z,99678.34
2023-01-15T03:13:52.896Z,99684.44
2023-01-15T03:16:37.042Z,99684.28
2023-01-15T03:19:29.899Z,99688.66
2023-01-15T03:22:09.983Z,99689.50
2023-01-15T03:24:45.689Z,99693.88
2023-01-15T03:27:13.605Z,99684.47
2023-01-15T03:29:52.960Z,99688.66
2023-01-15T03:32:21.851Z,99674.06
2023-01-15T03:34:55.433Z,99677.44
2023-01-15T03:37:27.321Z,99674.78
2023-01-15T03:39:57.244Z,99662.78
2023-01-15T03:42:31.501Z,99661.19
2023-01-15T03:45:18.213Z,99660.22
2023-01-15T03:47:57.426Z,99675.75
2023-01-15T03:50:43.196Z,99670.38
2023-01-15T03:53:24.134Z,99665.34
2023-01-15T03:56:15.859Z,99671.47
2023-01-15T03:59:17.740Z,99674.78
2023-01-15T04:02:04.420Z,99685.94
2023-01-15T04:04:32.231Z,99673.09
2023-01-15T04:07:03.115Z,99668.03
2023-01-15T04:09:32.941Z,99680.09
2023-01-15T04:12:01.324Z,99673.97
2023-01-15T04:14:33.085Z,99670.53
2023-01-15T04:17:05.902Z,99665.53
2023-01-15T04:19:32.765Z,99668.03
2023-01-15T04:22:03.281Z,99679.16
2023-01-15T04:24:30.025Z,99684.19
2023-01-15T04:26:56.763Z,99686.88
2023-01-15T04:29:23.852Z,99684.34
2023-01-15T04:31:53.596Z,99696.28
2023-01-15T04:34:20.620Z,99698.03
2023-01-15T04:36:48.062Z,99692.88
2023-01-15T04:39:14.862Z,99692.03
2023-01-15T04:41:59.980Z,99689.44
2023-01-15T04:44:28.633Z,99686.03
2023-01-15T04:46:57.372Z,99674.84
2023-01-15T04:49:24.096Z,99674.00
2023-01-15T04:51:50.899Z,99666.28
2023-01-15T04:54:19.176Z,99673.19
2023-01-15T04:56:50.499Z,99674.06
2023-01-15T04:59:24.007Z,99679.94
2023-01-15T05:02:03.302Z,99674.88
2023-01-15T05:04:33.174Z,99681.69
2023-01-15T05:07:02.764Z,99674.78
2023-01-15T05:09:29.510Z,99672.16
2023-01-15T05:11:56.215Z,99665.34
2023-01-15T05:14:23.012Z,99680.81
2023-01-15T05:16:49.786Z,99683.47
2023-01-15T05:19:16.438Z,99685.09
2023-01-15T05:21:44.774Z,99692.00
2023-01-15T05:24:16.390Z,99694.56
2023-01-15T05:26:43.424Z,99698.75
2023-01-15T05:29:11.638Z,99696.34
2023-01-15T05:31:38.987Z,99700.63
2023-01-15T05:34:05.777Z,99709.25
2023-01-15T05:36:32.741Z,99696.44
2023-01-15T05:39:01.816Z,99698.13
2023-01-15T05:41:50.118Z,99694.59
2023-01-15T05:44:34.130Z,99684.34
2023-01-15T05:47:05.718Z,99686.13
2023-01-15T05:49:32.735Z,99692.16
2023-01-15T05:52:01.472Z,99692.91
2023-01-15T05:54:34.133Z,99687.72
2023-01-15T05:57:01.601Z,99688.53
2023-01-15T05:59:30.767Z,99694.44
2023-01-15T06:01:59.985Z,99692.81
2023-01-15T06:04:27.966Z,99703.91
2023-01-15T06:06:56.623Z,99712.53
2023-01-15T06:09:24.809Z,99710.75
2023-01-15T06:11:53.678Z,99714.28
2023-01-15T06:14:20.608Z,99717.78
2023-01-15T06:16:47.360Z,99720.31
2023-01-15T06:19:14.733Z,99713.56
2023-01-15T06:21:41.994Z,99728.94
2023-01-15T06:24:09.144Z,99728.94
2023-01-15T06:26:35.926Z,99722.19
2023-01-15T06:29:02.659Z,99720.50
2023-01-15T06:31:29.470Z,99726.66
2023-01-15T06:33:56.570Z,99721.53
2023-01-15T06:36:27.121Z,99723.28
2023-01-15T06:38:54.153Z,99720.88
2023-01-15T06:41:43.802Z,99724.28
2023-01-15T06:44:35.784Z,99725.97
2023-01-15T06:47:22.921Z,99729.50
2023-01-15T06:49:56.148Z,99732.84
2023-01-15T06:52:24.846Z,99733.75
2023-01-15T06:54:52.150Z,99732.88
2023-01-15T06:57:22.203Z,99734.63
2023-01-15T06:59:49.610Z,99721.78
2023-01-15T07:02:17.950Z,99729.53
2023-01-15T07:04:45.274Z,99724.38
2023-01-15T07:07:12.038Z,99721.03
2023-01-15T07:09:38.708Z,99722.66
2023-01-15T07:12:05.596Z,99720.00
2023-01-15T07:15:15.739Z,99722.59
2023-01-15T07:17:47.897Z,99731.31
2023-01-15T07:20:14.559Z,99726.19
2023-01-15T07:22:41.264Z,99729.50
2023-01-15T07:25:09.367Z,99739.94
2023-01-15T07:31:42.822Z,99753.63
2023-01-15T07:34:09.924Z,99750.31
2023-01-15T07:36:37.633Z,99755.41
2023-01-15T07:39:06.169Z,99755.47
2023-01-15T07:41:54.857Z,99770.91
2023-01-15T07:44:41.058Z,99762.41
2023-01-15T07:47:38.465Z,99754.69
2023-01-15T07:50:09.074Z,99763.19
2023-01-15T07:52:35.942Z,99770.97
2023-01-15T07:55:03.953Z,99777.91
2023-01-15T07:57:30.996Z,99780.41
2023-01-15T07:59:57.688Z,99783.06
2023-01-15T08:02:24.367Z,99789.03
2023-01-15T08:04:51.153Z,99794.16
2023-01-15T08:07:17.830Z,99789.91
2023-01-15T08:09:44.604Z,99788.22
2023-01-15T08:12:31.031Z,99791.66
2023-01-15T08:15:13.100Z,99800.22
2023-01-15T08:17:46.188Z,99808.94
2023-01-15T08:20:22.194Z,99804.53
2023-01-15T08:22:49.140Z,99802.97
2023-01-15T08:25:20.178Z,99810.78
2023-01-15T08:27:47.587Z,99828.00
2023-01-15T08:30:22.218Z,99842.63
2023-01-15T08:32:48.899Z,99835.03
2023-01-15T08:35:15.971Z,99831.66
2023-01-15T08:37:43.251Z,99829.09
2023-01-15T08:40:11.714Z,99829.22
2023-01-15T08:42:39.067Z,99844.72
2023-01-15T08:45:06.739Z,99835.19
2023-01-15T08:47:33.471Z,99839.59
2023-01-15T08:50:00.205Z,99833.75
2023-01-15T08:52:26.911Z,99837.25
2023-01-15T08:54:53.555Z,99840.91
2023-01-15T08:57:20.224Z,99834.38
2023-01-15T08:59:47.983Z,99832.72
2023-01-15T09:02:15.623Z,99844.78
2023-01-15T09:04:42.535Z,99846.72
2023-01-15T09:07:09.406Z,99850.19
2023-01-15T09:09:36.460Z,99853.63
2023-01-15T09:12:03.269Z,99839.13
2023-01-15T09:14:55.372Z,99835.75
2023-01-15T09:17:16.698Z,99838.53
2023-01-15T09:19:43.358Z,99836.78
2023-01-15T09:22:09.994Z,99839.34
2023-01-15T09:24:36.960Z,99822.19
2023-01-15T09:27:03.693Z,99829.91
2023-01-15T09:29:30.438Z,99832.09
2023-01-15T09:31:57.098Z,99829.34
2023-01-15T09:34:23.856Z,99835.03
2023-01-15T09:36:51.223Z,99831.31
2023-01-15T09:39:18.010Z,99827.69
2023-01-15T09:42:06.931Z,99842.91
2023-01-15T09:45:04.400Z,99835.19
2023-01-15T09:47:41.849Z,99834.31
2023-01-15T09:50:30.170Z,99832.47
2023-01-15T09:53:06.737Z,99840.66
2023-01-15T09:55:43.862Z,99840.34
2023-01-15T09:58:14.235Z,99829.88
2023-01-15T10:00:48.035Z,99821.06
2023-01-15T10:03:45.005Z,99818.31
2023-01-15T10:06:23.244Z,99813.03
2023-01-15T10:08:51.362Z,99831.44
2023-01-15T10:11:19.156Z,99822.47
2023-01-15T10:13:47.281Z,99839.41
2023-01-15T10:16:28.599Z,99840.13
2023-01-15T10:19:02.031Z,99847.88
2023-01-15T10:21:51.726Z,99867.81
2023-01-15T10:24:34.021Z,99857.63
2023-01-15T10:27:08.544Z,99860.53
2023-01-15T10:30:00.149Z,99871.72
2023-01-15T10:33:01.872Z,99857.94
2023-01-15T10:36:14.732Z,99861.41
2023-01-15T10:39:11.097Z,99875.25
2023-01-15T10:42:24.114Z,99860.50
2023-01-15T10:45:12.897Z,99861.09
2023-01-15T10:47:42.550Z,99851.59
2023-01-15T10:50:23.126Z,99850.03
2023-01-15T10:52:56.688Z,99865.66
2023-01-15T10:55:37.050Z,99851.75
2023-01-15T10:58:14.380Z,99847.78
2023-01-15T11:00:54.923Z,99859.78
2023-01-15T11:03:36.191Z,99858.81
2023-01-15T11:06:04.230Z,99873.72
2023-01-15T11:11:59.527Z,99872.53
2023-01-15T11:15:03.742Z,99863.28
2023-01-15T11:17:54.096Z,99872.28
2023-01-15T11:20:34.961Z,99874.78
2023-01-15T11:23:14.860Z,99881.00
2023-01-15T11:25:52.402Z,99874.94
2023-01-15T11:28:31.945Z,99864.56
2023-01-15T11:30:59.429Z,99868.81
2023-01-15T11:33:29.323Z,99877.38
2023-01-15T11:36:00.409Z,99875.00
2023-01-15T11:38:43.403Z,99860.50
2023-01-15T11:41:47.612Z,99864.00
2023-01-15T11:44:35.329Z,99871.88
2023-01-15T11:47:21.627Z,99868.41
2023-01-15T11:50:11.887Z,99863.34
2023-01-15T11:52:45.753Z,99857.28
2023-01-15T11:55:17.740Z,99850.22
2023-01-15T11:57:45.791Z,99875.81
2023-01-15T12:00:44.954Z,99847.63
2023-01-15T12:03:21.572Z,99862.13
2023-01-15T12:05:58.749Z,99858.91
2023-01-15T12:09:14.340Z,99839.28
2023-01-15T12:12:00.884Z,99866.72
2023-01-15T12:14:58.987Z,99855.59
2023-01-15T12:18:12.172Z,99877.03
2023-01-15T12:21:02.520Z,99861.66
2023-01-15T12:23:54.485Z,99865.03
2023-01-15T12:26:38.276Z,99872.84
2023-01-15T12:29:36.100Z,99851.19
2023-01-15T12:32:10.262Z,99858.97
2023-01-15T12:35:16.558Z,99848.28
2023-01-15T12:37:52.208Z,99837.34
2023-01-15T12:40:18.854Z,99843.53
2023-01-15T12:43:08.847Z,99857.31
2023-01-15T12:45:42.385Z,99861.31
2023-01-15T12:48:22.760Z,99850.34
2023-01-15T12:50:51.898Z,99855.78
2023-01-15T12:53:24.905Z,99847.09
2023-01-15T12:56:22.414Z,99839.34
2023-01-15T12:59:26.827Z,99838.84
2023-01-15T13:02:36.337Z,99840.81
2023-01-15T13:05:20.726Z,99844.66
2023-01-15T13:08:05.011Z,99859.81
2023-01-15T13:10:35.410Z,99849.03
2023-01-15T13:13:38.256Z,99825.25
2023-01-15T13:16:24.502Z,99844.19
2023-01-15T13:19:38.682Z,99839.19
2023-01-15T13:22:16.720Z,99822.75
2023-01-15T13:25:45.306Z,99842.34
2023-01-15T13:28:44.758Z,99822.66
2023-01-15T13:31:41.882Z,99816.72
2023-01-15T13:34:24.591Z,99860.66
2023-01-15T13:36:53.512Z,99863.34
2023-01-15T13:39:28.865Z,99853.09
2023-01-15T13:42:14.065Z,99850.69
2023-01-15T13:44:49.018Z,99859.19
2023-01-15T13:47:28.038Z,99867.72
2023-01-15T13:50:01.275Z,99867.69
2023-01-15T13:52:32.876Z,99855.63
2023-01-15T13:55:26.049Z,99859.09
2023-01-15T13:57:52.792Z,99861.50
2023-01-15T14:00:34.829Z,99857.41
2023-01-15T14:03:25.440Z,99871.09
2023-01-15T14:05:58.067Z,99879.72
2023-01-15T14:08:46.102Z,99866.03
2023-01-15T14:11:39.311Z,99876.34
2023-01-15T14:14:42.719Z,99885.00
2023-01-15T14:17:43.232Z,99885.59
2023-01-15T14:20:44.606Z,99871.31
2023-01-15T14:23:39.083Z,99886.78
2023-01-15T14:26:28.008Z,99885.00
2023-01-15T14:29:43.007Z,99890.16
2023-01-15T14:32:48.628Z,99903.13
2023-01-15T14:35:22.552Z,99905.69
2023-01-15T14:37:53.397Z,99891.06
2023-01-15T14:40:28.439Z,99889.13
2023-01-15T14:43:09.331Z,99896.06
2023-01-15T14:45:40.729Z,99905.53
2023-01-15T14:48:28.749Z,99895.88
2023-01-15T14:51:16.965Z,99904.41
2023-01-15T14:53:55.286Z,99906.91
2023-01-15T14:56:36.304Z,99909.50
2023-01-15T14:59:36.965Z,99906.84
2023-01-15T15:02:21.273Z,99915.31
2023-01-15T15:04:56.545Z,99908.47
2023-01-15T15:07:28.457Z,99901.53
2023-01-15T15:10:06.626Z,99917.78
2023-01-15T15:12:48.620Z,99909.16
2023-01-15T15:15:33.888Z,99914.31
2023-01-15T15:18:11.734Z,99917.00
2023-01-15T15:21:04.564Z,99919.47
2023-01-15T15:24:27.267Z,99922.94
2023-01-15T15:26:54.059Z,99926.41
2023-01-15T15:29:22.455Z,99915.31
2023-01-15T15:32:00.258Z,99930.84
2023-01-15T15:34:29.430Z,99918.03
2023-01-15T15:37:01.383Z,99914.56
2023-01-15T15:39:34.247Z,99919.88
2023-01-15T15:42:21.685Z,99930.34
2023-01-15T15:45:18.396Z,99935.69
2023-01-15T15:48:03.514Z,99926.34
2023-01-15T15:50:34.987Z,99929.81
2023-01-15T15:53:06.702Z,99929.97
2023-01-15T15:55:44.182Z,99933.28
2023-01-15T15:58:36.368Z,99935.78
2023-01-15T16:01:03.832Z,99939.97
2023-01-15T16:03:33.347Z,99936.47
2023-01-15T16:06:08.106Z,99919.31
2023-01-15T16:08:36.049Z,99922.78
2023-01-15T16:11:08.981Z,99942.47
2023-01-15T16:13:42.726Z,99947.69
2023-01-15T16:16:11.159Z,99944.38
2023-01-15T16:18:44.634Z,99942.63
2023-01-15T16:21:19.163Z,99944.38
2023-01-15T16:23:56.771Z,99942.69
2023-01-15T16:26:44.067Z,99944.44
2023-01-15T16:29:23.597Z,99941.13
2023-01-15T16:31:51.907Z,99946.31
2023-01-15T16:34:22.796Z,99936.78
2023-01-15T16:36:49.861Z,99938.44
2023-01-15T16:39:36.922Z,99938.56
2023-01-15T16:42:04.060Z,99938.59
2023-01-15T16:44:46.799Z,99938.66
2023-01-15T16:47:26.607Z,99939.38
2023-01-15T16:49:53.917Z,99937.56
2023-01-15T16:52:50.260Z,99935.97
2023-01-15T16:55:39.341Z,99935.19
2023-01-15T16:58:12.269Z,99947.97
2023-01-15T17:00:53.102Z,99947.19
2023-01-15T17:03:22.435Z,99956.59
2023-01-15T17:05:53.405Z,99944.38
2023-01-15T17:08:32.320Z,99962.44
2023-01-15T17:11:02.101Z,99956.47
2023-01-15T17:13:38.378Z,99949.75
2023-01-15T17:16:20.509Z,99955.78
2023-01-15T17:18:49.687Z,99956.09
2023-01-15T17:21:23.374Z,99964.78
2023-01-15T17:23:50.934Z,99960.59
2023-01-15T17:26:24.375Z,99960.72
2023-01-15T17:28:51.184Z,99958.16
2023-01-15T17:31:33.281Z,99958.25
2023-01-15T17:34:03.136Z,99961.59
2023-01-15T17:36:31.151Z,99971.91
2023-01-15T17:39:01.481Z,99960.88
2023-01-15T17:41:30.336Z,99966.81
2023-01-15T17:43:57.234Z,99966.00
2023-01-15T17:46:24.376Z,99950.63
2023-01-15T17:48:51.060Z,99956.66
2023-01-15T17:51:18.295Z,99960.91
2023-01-15T17:53:45.169Z,99959.38
2023-01-15T17:56:30.579Z,99947.38
2023-01-15T17:59:26.444Z,99938.94
2023-01-15T18:02:12.453Z,99946.63
2023-01-15T18:05:03.577Z,99962.03
2023-01-15T18:07:37.457Z,99953.59
2023-01-15T18:10:04.905Z,99957.88
2023-01-15T18:12:31.604Z,99957.06
2023-01-15T18:14:58.429Z,99949.34
2023-01-15T18:17:25.081Z,99954.56
2023-01-15T18:19:51.798Z,99952.81
2023-01-15T18:22:18.940Z,99959.78
2023-01-15T18:24:46.525Z,99946.97
2023-01-15T18:27:13.300Z,99948.75
2023-01-15T18:29:40.391Z,99944.50
2023-01-15T18:32:10.390Z,99947.81
2023-01-15T18:34:37.448Z,99950.38
2023-01-15T18:37:05.089Z,99945.09
2023-01-15T18:39:31.894Z,99946.91
2023-01-15T18:41:58.535Z,99940.91
2023-01-15T18:44:45.262Z,99941.63
2023-01-15T18:47:16.516Z,99937.44
2023-01-15T18:49:45.907Z,99939.13
2023-01-15T18:52:34.981Z,99933.97
2023-01-15T18:55:02.186Z,99930.59
2023-01-15T18:57:28.895Z,99926.31
2023-01-15T18:59:55.581Z,99928.09
2023-01-15T19:02:22.560Z,99926.47
2023-01-15T19:04:49.677Z,99925.66
2023-01-15T19:07:17.388Z,99923.09
2023-01-15T19:09:44.134Z,99915.50
2023-01-15T19:12:11.335Z,99911.28
2023-01-15T19:14:56.750Z,99917.31
2023-01-15T19:17:44.421Z,99918.97
2023-01-15T19:20:15.616Z,99907.75
2023-01-15T19:23:02.730Z,99910.22
2023-01-15T19:25:43.459Z,99912.03
2023-01-15T19:28:15.772Z,99910.34
2023-01-15T19:30:43.780Z,99908.66
2023-01-15T19:33:10.642Z,99895.06
2023-01-15T19:35:39.060Z,99895.06
2023-01-15T19:38:08.375Z,99894.03
2023-01-15T19:40:40.645Z,99893.22
2023-01-15T19:43:25.929Z,99897.59
2023-01-15T19:46:15.413Z,99897.69
2023-01-15T19:49:00.805Z,99889.09
2023-01-15T19:51:46.050Z,99888.28
2023-01-15T19:54:12.817Z,99870.97
2023-01-15T19:56:40.086Z,99868.34
2023-01-15T19:59:07.811Z,99870.88
2023-01-15T20:01:34.635Z,99869.84
2023-01-15T20:04:01.375Z,99867.13
2023-01-15T20:06:28.031Z,99859.38
2023-01-15T20:08:55.192Z,99855.81
2023-01-15T20:11:21.927Z,99855.72
2023-01-15T20:13:54.427Z,99850.63
2023-01-15T20:16:22.894Z,99844.63
2023-01-15T20:18:51.392Z,99847.06
2023-01-15T20:21:18.854Z,99841.09
2023-01-15T20:23:46.384Z,99841.03
2023-01-15T20:26:14.717Z,99835.97
2023-01-15T20:28:42.694Z,99835.06
2023-01-15T20:31:18.411Z,99823.84
2023-01-15T20:33:46.165Z,99822.97
2023-01-15T20:36:13.005Z,99809.28
2023-01-15T20:38:39.727Z,99811.81
2023-01-15T20:41:29.487Z,99812.66
2023-01-15T20:44:14.816Z,99811.00
2023-01-15T20:46:41.629Z,99806.75
2023-01-15T20:49:29.899Z,99800.63
2023-01-15T20:51:57.535Z,99791.22
2023-01-15T20:54:25.983Z,99797.25
2023-01-15T20:56:52.880Z,99785.25
2023-01-15T20:59:19.634Z,99787.34
2023-01-15T21:01:46.554Z,99778.94
2023-01-15T21:04:13.764Z,99779.03
2023-01-15T21:06:41.038Z,99771.31
2023-01-15T21:09:07.794Z,99767.00
2023-01-15T21:11:34.587Z,99766.25
2023-01-15T21:14:01.297Z,99760.22
2023-01-15T21:16:28.011Z,99766.16
2023-01-15T21:18:54.741Z,99747.31
2023-01-15T21:21:22.231Z,99752.47
2023-01-15T21:23:49.036Z,99745.66
2023-01-15T21:26:16.630Z,99731.22
2023-01-15T21:28:44.718Z,99727.13
2023-01-15T21:31:13.625Z,99725.75
2023-01-15T21:33:40.407Z,99711.25
2023-01-15T21:36:09.810Z,99714.84
2023-01-15T21:38:36.608Z,99710.59
2023-01-15T21:41:09.013Z,99715.66
2023-01-15T21:43:54.841Z,99712.28
2023-01-15T21:46:27.688Z,99713.25
2023-01-15T21:48:56.399Z,99698.84
2023-01-15T21:51:24.965Z,99695.53
2023-01-15T21:53:51.687Z,99697.31
2023-01-15T21:56:18.349Z,99696.41
2023-01-15T21:58:45.038Z,99682.53
2023-01-15T22:01:15.002Z,99682.34
2023-01-15T22:03:42.117Z,99678.00
2023-01-15T22:06:10.543Z,99672.81
2023-01-15T22:08:37.307Z,99671.94
2023-01-15T22:11:09.754Z,99672.72
2023-01-15T22:13:37.734Z,99653.03
2023-01-15T22:16:04.916Z,99653.81
2023-01-15T22:18:33.271Z,99659.94
2023-01-15T22:21:04.268Z,99650.63
2023-01-15T22:23:31.253Z,99648.06
2023-01-15T22:25:57.995Z,99645.31
2023-01-15T22:28:27.711Z,99637.38
2023-01-15T22:30:54.459Z,99626.16
2023-01-15T22:33:21.500Z,99627.16
2023-01-15T22:35:58.976Z,99630.63
2023-01-15T22:38:26.242Z,99622.09
2023-01-15T22:40:53.046Z,99617.91
2023-01-15T22:43:19.748Z,99626.44
2023-01-15T22:45:46.407Z,99620.56
2023-01-15T22:48:13.136Z,99605.06
2023-01-15T22:50:39.931Z,99605.03
2023-01-15T22:53:07.588Z,99596.31
2023-01-15T22:55:34.438Z,99594.69
2023-01-15T22:58:01.231Z,99600.72
2023-01-15T23:00:27.908Z,99576.53
2023-01-15T23:02:54.615Z,99585.03
2023-01-15T23:05:24.133Z,99581.69
2023-01-15T23:07:51.304Z,99576.53
2023-01-15T23:10:18.269Z,99575.69
2023-01-15T23:12:45.159Z,99566.66
2023-01-15T23:15:14.011Z,99563.41
2023-01-15T23:17:40.884Z,99564.28
2023-01-15T23:20:09.576Z,99555.84
2023-01-15T23:22:36.300Z,99555.72
2023-01-15T23:25:03.537Z,99548.75
2023-01-15T23:27:30.218Z,99545.97
2023-01-15T23:29:56.955Z,99551.91
2023-01-15T23:32:23.636Z,99545.09
2023-01-15T23:34:50.545Z,99544.09
2023-01-15T23:37:17.312Z,99542.28
2023-01-15T23:39:43.978Z,99537.94
2023-01-15T23:42:29.415Z,99531.91
2023-01-15T23:45:14.589Z,99537.13
2023-01-15T23:47:41.206Z,99530.13
2023-01-15T23:50:08.619Z,99530.22
2023-01-15T23:52:35.313Z,99514.00
2023-01-15T23:55:01.985Z,99511.31
2023-01-15T23:57:28.697Z,99506.28
2023-01-15T23:59:55.365Z,99503.03
